Time;durP1;ratioP1;P1;durP2;ratioP2;P2;SDS_P1;SDS_P2;PMS_P1;PMS_P2;Temp;Humidity;BMP_temperature;BMP_pressure;BME280_temperature;BME280_humidity;BME280_pressure;Samples;Min_cycle;Max_cycle;Signal;HPM_P1;HPM_P2
2022/11/05 16:08:26;;;;;;;14.95;4.63;;;;;;;20.48;52.69;101350.97;4966943;27;3724844;-61
2022/11/05 16:11:14;;;;;;;16.52;4.10;;;;;;;21.37;49.77;101315.56;5086150;28;20115;-60
2022/11/05 16:13:42;;;;;;;10.02;3.88;;;;;;;22.40;47.27;101348.00;5068768;28;20090;-62
2022/11/05 16:16:19;;;;;;;10.20;3.58;;;;;;;22.93;45.62;101347.56;5086893;28;20039;-60
2022/11/05 16:18:47;;;;;;;8.55;3.97;;;;;;;23.23;45.00;101332.56;5084275;28;20031;-54
2022/11/05 16:21:34;;;;;;;5.70;2.63;;;;;;;23.54;44.21;101346.31;5070208;28;20111;-56
2022/11/05 16:24:01;;;;;;;12.25;4.03;;;;;;;23.61;43.68;101322.91;5085339;28;20111;-62
2022/11/05 16:26:38;;;;;;;7.65;3.15;;;;;;;23.81;43.73;101333.78;5088484;28;20519;-61
2022/11/05 16:29:13;;;;;;;5.97;2.50;;;;;;;23.85;43.17;101326.88;5088610;28;20043;-61
2022/11/05 16:31:40;;;;;;;6.30;2.60;;;;;;;24.01;43.22;101329.81;5085823;28;20044;-62
2022/11/05 16:34:26;;;;;;;8.75;3.17;;;;;;;24.07;43.07;101332.56;5087114;28;20033;-62
2022/11/05 16:36:55;;;;;;;8.48;3.10;;;;;;;24.12;42.67;101321.28;5084027;28;20111;-62
2022/11/05 16:39:23;;;;;;;8.05;2.85;;;;;;;24.19;42.75;101321.38;5088229;28;20408;-61
2022/11/05 16:41:50;;;;;;;11.00;2.95;;;;;;;24.26;42.32;101318.03;5087424;28;20036;-52
2022/11/05 16:44:17;;;;;;;7.10;2.50;;;;;;;24.23;42.33;101304.88;5085169;28;20531;-60
2022/11/05 16:46:47;;;;;;;5.35;2.65;;;;;;;24.38;42.20;101330.47;5070492;28;20389;-62
2022/11/05 16:49:15;;;;;;;7.63;3.08;;;;;;;24.41;42.26;101323.53;5087193;28;20052;-61
2022/11/05 16:51:43;;;;;;;11.05;2.97;;;;;;;24.42;42.12;101327.94;5086363;28;20082;-61
2022/11/05 16:54:10;;;;;;;8.48;2.85;;;;;;;24.47;41.97;101333.25;5088249;28;20088;-61
2022/11/05 16:56:41;;;;;;;7.57;2.92;;;;;;;24.43;42.08;101321.81;5069990;28;20016;-61
2022/11/05 16:59:11;;;;;;;5.93;2.50;;;;;;;24.49;42.16;101331.53;5087788;28;20136;-62
2022/11/05 17:01:40;;;;;;;4.93;2.53;;;;;;;24.54;41.92;101326.34;5086081;28;20058;-63
2022/11/05 17:04:08;;;;;;;6.55;2.90;;;;;;;24.53;42.19;101317.63;5088024;28;20027;-62
2022/11/05 17:06:36;;;;;;;6.03;2.40;;;;;;;24.54;42.13;101314.13;5087828;28;20071;-62
2022/11/05 17:09:03;;;;;;;5.45;2.22;;;;;;;24.56;42.04;101308.91;5087865;28;20043;-61
2022/11/05 17:11:30;;;;;;;5.78;2.45;;;;;;;24.59;41.93;101308.97;5086102;28;20036;-61
2022/11/05 17:13:57;;;;;;;6.63;2.35;;;;;;;24.56;41.61;101285.31;5087560;28;20065;-60
2022/11/05 17:16:26;;;;;;;7.63;2.40;;;;;;;24.62;41.68;101298.53;5086431;28;20478;-61
2022/11/05 17:18:54;;;;;;;6.28;2.13;;;;;;;24.70;41.66;101302.16;5078745;28;20025;-60
2022/11/05 17:21:22;;;;;;;6.13;2.33;;;;;;;24.71;41.65;101303.94;5073617;28;20115;-54
2022/11/05 17:23:50;;;;;;;4.32;2.00;;;;;;;24.71;41.96;101309.19;5073648;28;20052;-60
2022/11/05 17:26:37;;;;;;;6.10;2.33;;;;;;;24.60;41.48;101286.22;5073950;28;20029;-61
2022/11/05 17:29:24;;;;;;;5.82;1.73;;;;;;;24.71;41.63;101310.94;5071045;28;20081;-62
2022/11/05 17:31:51;;;;;;;8.23;1.90;;;;;;;24.79;41.66;101306.66;5073221;28;20029;-59
2022/11/05 17:34:19;;;;;;;4.10;2.00;;;;;;;24.83;41.51;101302.34;5073892;28;20024;-61
2022/11/05 17:36:47;;;;;;;5.63;2.15;;;;;;;24.83;41.35;101299.72;5073513;28;20028;-61
2022/11/05 17:39:14;;;;;;;4.90;1.60;;;;;;;24.89;41.15;101291.94;5073984;28;20021;-61
2022/11/05 17:41:43;;;;;;;9.55;2.30;;;;;;;24.89;41.31;101281.44;5072871;28;20369;-62
2022/11/05 17:44:11;;;;;;;6.35;2.03;;;;;;;24.92;41.04;101286.75;5073138;28;20114;-60
2022/11/05 17:46:39;;;;;;;5.97;2.40;;;;;;;24.91;41.47;101276.22;5073743;28;20124;-61
2022/11/05 17:49:06;;;;;;;8.13;1.88;;;;;;;24.89;41.31;101278.81;5073761;28;20435;-61
2022/11/05 17:51:33;;;;;;;5.53;1.80;;;;;;;24.90;41.68;101279.72;5073389;28;20028;-62
2022/11/05 17:54:02;;;;;;;9.02;2.10;;;;;;;24.85;41.29;101277.91;5073553;28;20074;-61
2022/11/05 17:56:30;;;;;;;7.15;2.00;;;;;;;24.88;41.51;101279.69;5073513;28;20024;-61
2022/11/05 17:59:00;;;;;;;7.53;1.73;;;;;;;24.87;41.49;101285.78;5073419;28;20078;-61
2022/11/05 18:01:32;;;;;;;10.38;1.85;;;;;;;24.87;41.67;101283.16;5073172;28;20028;-61
2022/11/05 18:04:00;;;;;;;5.05;1.85;;;;;;;24.81;41.68;101264.72;5071645;28;20103;-61
2022/11/05 18:06:28;;;;;;;4.47;1.50;;;;;;;24.93;41.71;101274.50;5073094;28;20060;-61
2022/11/05 18:08:56;;;;;;;5.10;1.92;;;;;;;24.96;41.77;101275.44;5073422;28;20119;-61
2022/11/05 18:11:24;;;;;;;8.45;1.75;;;;;;;25.01;41.51;101272.88;5071898;28;20543;-60
2022/11/05 18:13:51;;;;;;;5.05;1.85;;;;;;;25.02;41.44;101277.25;5072692;28;20048;-60
2022/11/05 18:16:20;;;;;;;4.65;1.83;;;;;;;25.07;41.86;101283.44;5073052;28;20068;-57
2022/11/05 18:18:48;;;;;;;5.72;1.70;;;;;;;25.07;41.33;101279.94;5073293;28;20043;-61
2022/11/05 18:21:16;;;;;;;6.75;1.65;;;;;;;25.10;41.60;101282.59;5071777;28;20311;-61
2022/11/05 18:23:44;;;;;;;7.85;1.90;;;;;;;25.11;41.69;101280.00;5072907;28;20389;-61
2022/11/05 18:26:13;;;;;;;4.72;1.90;;;;;;;25.16;41.64;101282.66;5072350;28;20020;-61
2022/11/05 18:28:42;;;;;;;6.32;1.90;;;;;;;25.17;41.32;101276.56;5072488;28;20025;-61
2022/11/05 18:31:15;;;;;;;6.07;1.77;;;;;;;25.20;41.47;101276.59;5072197;28;20571;-61
2022/11/05 18:34:03;;;;;;;9.02;2.15;;;;;;;25.24;41.24;101274.88;5072916;28;20435;-62
2022/11/05 18:36:32;;;;;;;6.20;1.60;;;;;;;25.28;41.21;101276.69;5073030;28;20481;-62
2022/11/05 18:39:20;;;;;;;7.88;1.98;;;;;;;25.29;41.10;101266.22;5071653;28;20180;-62
2022/11/05 18:41:47;;;;;;;7.50;1.70;;;;;;;25.28;41.06;101259.22;5071468;28;20426;-62
2022/11/05 18:44:15;;;;;;;7.43;1.95;;;;;;;25.34;41.38;101263.66;5073724;28;20440;-62
2022/11/05 18:46:43;;;;;;;6.50;1.90;;;;;;;25.36;40.92;101248.81;5073212;28;20032;-62
2022/11/05 18:49:11;;;;;;;7.82;1.92;;;;;;;25.41;40.91;101254.09;5073696;28;20060;-62
2022/11/05 18:51:38;;;;;;;4.82;1.70;;;;;;;25.42;40.88;101254.13;5072763;28;20474;-61
2022/11/05 18:54:07;;;;;;;4.97;1.42;;;;;;;25.44;40.99;101248.94;5073014;28;20086;-61
2022/11/05 18:56:35;;;;;;;7.75;1.85;;;;;;;25.43;40.84;101252.41;5073283;28;20036;-61
2022/11/05 18:59:04;;;;;;;7.50;2.67;;;;;;;25.40;40.92;101247.94;5072883;28;20025;-62
2022/11/05 19:01:31;;;;;;;10.73;2.45;;;;;;;25.45;40.81;101248.94;5072606;28;20025;-61
2022/11/05 19:04:00;;;;;;;10.10;2.83;;;;;;;25.43;40.87;101245.41;5071014;28;20074;-61
2022/11/05 19:06:27;;;;;;;16.42;5.38;;;;;;;25.50;41.17;101248.09;5072542;28;20466;-55
2022/11/05 19:08:59;;;;;;;27.67;8.75;;;;;;;25.53;41.15;101246.38;5072928;28;20111;-62
2022/11/05 19:11:27;;;;;;;39.47;10.93;;;;;;;25.48;41.08;101232.34;5072813;28;20078;-62
2022/11/05 19:13:55;;;;;;;44.45;12.50;;;;;;;25.54;41.43;101252.53;5070982;28;20033;-62
2022/11/05 19:16:26;;;;;;;60.20;16.38;;;;;;;25.58;41.16;101255.22;5071394;28;20068;-62
2022/11/05 19:18:59;;;;;;;53.65;19.45;;;;;;;25.61;41.08;101246.47;5072637;28;20031;-57
2022/11/05 19:21:45;;;;;;;60.30;22.70;;;;;;;25.64;41.17;101238.63;5071788;28;20032;-62
2022/11/05 19:24:31;;;;;;;70.35;23.63;;;;;;;25.62;41.36;101230.75;5072308;28;20056;-63
2022/11/05 19:26:58;;;;;;;64.43;22.92;;;;;;;25.66;41.10;101222.84;5072621;28;20067;-60
2022/11/05 19:29:27;;;;;;;60.08;22.90;;;;;;;25.67;41.02;101212.38;5072463;28;20402;-62
2022/11/05 19:32:15;;;;;;;66.20;23.92;;;;;;;25.62;41.14;101220.22;5071939;28;20020;-62
2022/11/05 19:34:43;;;;;;;72.97;26.58;;;;;;;25.66;41.12;101220.22;5071551;28;20028;-62
2022/11/05 19:37:12;;;;;;;69.53;24.67;;;;;;;25.68;41.06;101221.13;5072799;28;20043;-62
2022/11/05 19:39:40;;;;;;;62.10;24.77;;;;;;;25.68;41.15;101215.88;5071481;28;20111;-58
2022/11/05 19:42:09;;;;;;;58.30;24.17;;;;;;;25.67;41.33;101215.00;5071377;28;20043;-62
2022/11/05 19:44:37;;;;;;;62.05;23.67;;;;;;;25.70;40.83;101216.78;5072720;28;20465;-61
2022/11/05 19:47:06;;;;;;;53.80;22.80;;;;;;;25.75;40.92;101221.19;5072093;28;20166;-63
2022/11/05 19:49:34;;;;;;;55.85;23.02;;;;;;;25.72;41.00;101209.78;5071274;28;20476;-61
2022/11/05 19:52:03;;;;;;;53.90;22.42;;;;;;;25.76;40.86;101207.19;5071204;28;20030;-62
2022/11/05 19:54:32;;;;;;;51.60;22.48;;;;;;;25.78;40.67;101207.22;5072293;28;20027;-60
2022/11/05 19:57:01;;;;;;;47.72;20.38;;;;;;;25.84;40.69;101206.41;5072546;28;20033;-62
2022/11/05 19:59:29;;;;;;;42.58;18.50;;;;;;;25.73;40.95;101195.78;5071271;28;20366;-62
2022/11/05 20:01:58;;;;;;;49.97;19.52;;;;;;;25.73;40.95;101190.53;5072767;28;20025;-62
2022/11/05 20:04:45;;;;;;;40.90;18.33;;;;;;;25.78;40.91;101188.84;5072393;28;20401;-62
2022/11/05 20:07:14;;;;;;;47.33;17.58;;;;;;;25.71;40.88;101189.63;5072044;28;20463;-62
2022/11/05 20:09:42;;;;;;;43.78;16.83;;;;;;;25.71;40.73;101177.41;5071418;28;20032;-63
2022/11/05 20:12:09;;;;;;;40.97;16.10;;;;;;;25.79;40.72;101185.34;5067692;28;20025;-62
2022/11/05 20:14:38;;;;;;;35.60;14.63;;;;;;;25.83;40.41;101183.63;5053930;28;20082;-62
2022/11/05 20:17:07;;;;;;;39.83;15.23;;;;;;;25.76;40.84;101180.06;5054550;28;20035;-62
2022/11/05 20:19:35;;;;;;;34.72;13.40;;;;;;;25.74;40.57;101174.78;5072470;28;20024;-63
